createdAt,value
2018-12-02T00:01:08.684Z,95757.94
2018-12-02T00:03:38.666Z,95752.19
2018-12-02T00:06:08.452Z,95741.88
2018-12-02T00:08:38.232Z,95737.86
2018-12-02T00:11:08.137Z,95731.83
2018-12-02T00:13:37.924Z,95728.50
2018-12-02T00:16:07.954Z,95726.02
2018-12-02T00:18:38.003Z,95719.86
2018-12-02T00:21:08.142Z,95715.08
2018-12-02T00:23:38.984Z,95713.37
2018-12-02T00:27:38.344Z,95715.91
2018-12-02T00:30:14.646Z,95713.98
2018-12-02T00:32:44.561Z,95710.31
2018-12-02T00:35:16.296Z,95706.44
2018-12-02T00:37:48.329Z,95696.22
2018-12-02T00:40:19.971Z,95690.27
2018-12-02T00:42:59.972Z,95685.47
2018-12-02T00:45:37.653Z,95676.59
2018-12-02T00:48:09.884Z,95668.83
2018-12-02T00:50:39.893Z,95662.80
2018-12-02T00:53:10.931Z,95673.46
2018-12-02T00:55:45.770Z,95675.29
2018-12-02T00:58:15.901Z,95673.38
2018-12-02T01:00:46.045Z,95670.53
2018-12-02T01:03:16.155Z,95667.25
2018-12-02T01:05:46.399Z,95663.61
2018-12-02T01:08:16.329Z,95665.01
2018-12-02T01:10:46.508Z,95658.45
2018-12-02T01:13:16.601Z,95647.96
2018-12-02T01:15:46.905Z,95652.81
2018-12-02T01:18:16.910Z,95655.52
2018-12-02T01:20:46.898Z,95656.34
2018-12-02T01:23:16.956Z,95656.77
2018-12-02T01:25:46.928Z,95661.62
2018-12-02T01:28:16.820Z,95665.29
2018-12-02T01:30:46.689Z,95668.21
2018-12-02T01:33:16.652Z,95671.14
2018-12-02T01:35:46.590Z,95660.30
2018-12-02T01:38:16.500Z,95662.25
2018-12-02T01:40:48.366Z,95668.07
2018-12-02T01:43:18.288Z,95669.64
2018-12-02T01:45:48.316Z,95657.05
2018-12-02T01:48:18.269Z,95662.11
2018-12-02T01:50:48.210Z,95663.86
2018-12-02T01:53:18.011Z,95657.65
2018-12-02T01:55:47.941Z,95655.15
2018-12-02T01:58:17.750Z,95655.15
2018-12-02T02:00:47.654Z,95649.13
2018-12-02T02:03:17.459Z,95650.48
2018-12-02T02:07:16.619Z,95649.73
2018-12-02T02:09:46.372Z,95643.31
2018-12-02T02:12:16.426Z,95639.61
2018-12-02T02:14:46.223Z,95641.75
2018-12-02T02:17:16.003Z,95635.96
2018-12-02T02:19:45.786Z,95631.71
2018-12-02T02:22:15.649Z,95627.85
2018-12-02T02:24:45.597Z,95627.67
2018-12-02T02:27:15.375Z,95631.38
2018-12-02T02:29:45.155Z,95637.97
2018-12-02T02:32:14.990Z,95633.15
2018-12-02T02:34:44.776Z,95626.76
2018-12-02T02:37:14.580Z,95624.83
2018-12-02T02:39:44.358Z,95618.63
2018-12-02T02:42:14.093Z,95617.63
2018-12-02T02:44:43.872Z,95615.28
2018-12-02T02:47:13.688Z,95610.09
2018-12-02T02:49:43.473Z,95606.80
2018-12-02T02:52:13.269Z,95600.63
2018-12-02T02:54:43.018Z,95596.95
2018-12-02T02:57:12.791Z,95594.66
2018-12-02T02:59:42.577Z,95592.69
2018-12-02T03:02:12.393Z,95587.69
2018-12-02T03:04:42.275Z,95576.83
2018-12-02T03:07:12.217Z,95576.64
2018-12-02T03:09:42.071Z,95563.45
2018-12-02T03:12:11.847Z,95564.80
2018-12-02T03:14:41.615Z,95562.70
2018-12-02T03:17:11.421Z,95556.86
2018-12-02T03:19:41.337Z,95554.53
2018-12-02T03:22:11.107Z,95556.47
2018-12-02T03:24:40.894Z,95549.52
2018-12-02T03:27:10.677Z,95549.91
2018-12-02T03:29:40.441Z,95550.10
2018-12-02T03:33:11.530Z,95543.91
2018-12-02T03:35:41.321Z,95544.48
2018-12-02T03:38:11.185Z,95531.72
2018-12-02T03:40:40.974Z,95537.53
2018-12-02T03:43:10.807Z,95530.58
2018-12-02T03:45:40.733Z,95538.70
2018-12-02T03:48:10.563Z,95534.07
2018-12-02T03:50:41.171Z,95529.22
2018-12-02T03:53:10.985Z,95528.44
2018-12-02T03:55:40.778Z,95520.11
2018-12-02T03:58:10.571Z,95516.24
2018-12-02T04:00:40.465Z,95518.75
2018-12-02T04:03:10.345Z,95505.39
2018-12-02T04:05:40.147Z,95497.82
2018-12-02T04:08:09.969Z,95489.47
2018-12-02T04:10:39.779Z,95487.75
2018-12-02T04:13:09.797Z,95485.02
2018-12-02T04:15:39.863Z,95481.35
2018-12-02T04:18:09.719Z,95497.63
2018-12-02T04:20:39.551Z,95495.70
2018-12-02T04:23:09.300Z,95494.91
2018-12-02T04:25:39.164Z,95488.95
2018-12-02T04:28:08.938Z,95491.47
2018-12-02T04:30:38.846Z,95499.02
2018-12-02T04:33:08.662Z,95481.58
2018-12-02T04:35:38.462Z,95489.14
2018-12-02T04:38:08.276Z,95490.50
2018-12-02T04:40:38.116Z,95491.66
2018-12-02T04:43:07.948Z,95478.67
2018-12-02T04:45:37.698Z,95475.95
2018-12-02T04:48:07.520Z,95471.70
2018-12-02T04:50:37.351Z,95474.80
2018-12-02T04:53:07.304Z,95477.90
2018-12-02T04:55:37.070Z,95483.89
2018-12-02T04:58:06.971Z,95480.38
2018-12-02T05:00:36.734Z,95493.95
2018-12-02T05:03:06.884Z,95497.03
2018-12-02T05:05:36.770Z,95494.87
2018-12-02T05:08:07.294Z,95503.41
2018-12-02T05:10:37.059Z,95499.51
2018-12-02T05:13:07.435Z,95504.53
2018-12-02T05:15:37.225Z,95500.24
2018-12-02T05:18:07.435Z,95497.34
2018-12-02T05:20:37.155Z,95494.63
2018-12-02T05:23:07.049Z,95485.50
2018-12-02T05:25:36.753Z,95484.91
2018-12-02T05:28:06.914Z,95484.52
2018-12-02T05:30:36.681Z,95489.53
2018-12-02T05:33:07.020Z,95486.44
2018-12-02T05:35:36.763Z,95479.64
2018-12-02T05:38:07.184Z,95474.80
2018-12-02T05:40:36.900Z,95473.42
2018-12-02T05:43:06.734Z,95478.45
2018-12-02T05:45:36.514Z,95472.84
2018-12-02T05:48:06.316Z,95472.84
2018-12-02T05:50:36.146Z,95468.00
2018-12-02T05:53:05.944Z,95473.81
2018-12-02T05:55:38.094Z,95468.20
2018-12-02T05:58:09.081Z,95462.55
2018-12-02T06:00:38.887Z,95461.80
2018-12-02T06:03:09.147Z,95461.20
2018-12-02T06:05:38.936Z,95459.27
2018-12-02T06:08:09.461Z,95454.98
2018-12-02T06:10:39.238Z,95460.41
2018-12-02T06:13:09.025Z,95471.05
2018-12-02T06:15:39.359Z,95461.53
2018-12-02T06:18:08.969Z,95458.20
2018-12-02T06:20:38.735Z,95460.70
2018-12-02T06:23:08.504Z,95447.30
2018-12-02T06:25:38.381Z,95452.50
2018-12-02T06:34:55.851Z,95452.60
2018-12-02T06:37:25.714Z,95459.77
2018-12-02T06:39:55.511Z,95471.95
2018-12-02T06:42:25.305Z,95461.72
2018-12-02T06:44:55.093Z,95448.75
2018-12-02T06:47:24.891Z,95449.11
2018-12-02T06:49:54.819Z,95445.83
2018-12-02T06:52:24.633Z,95452.19
2018-12-02T06:54:58.069Z,95449.50
2018-12-02T06:57:32.908Z,95440.23
2018-12-02T07:00:23.239Z,95456.66
2018-12-02T07:03:28.048Z,95454.53
2018-12-02T07:05:57.855Z,95451.82
2018-12-02T07:08:27.646Z,95457.02
2018-12-02T07:10:57.404Z,95448.45
2018-12-02T07:13:27.321Z,95446.52
2018-12-02T07:15:57.141Z,95444.00
2018-12-02T07:18:29.822Z,95441.68
2018-12-02T07:21:00.451Z,95439.33
2018-12-02T07:23:38.208Z,95451.55
2018-12-02T07:26:11.217Z,95458.52
2018-12-02T07:28:41.109Z,95460.66
2018-12-02T07:31:10.866Z,95456.24
2018-12-02T07:33:40.707Z,95465.33
2018-12-02T07:36:11.005Z,95463.58
2018-12-02T07:38:54.058Z,95460.33
2018-12-02T07:41:23.854Z,95467.67
2018-12-02T07:43:53.613Z,95464.58
2018-12-02T07:46:23.468Z,95459.70
2018-12-02T07:48:53.501Z,95458.91
2018-12-02T07:51:23.306Z,95463.94
2018-12-02T07:53:53.368Z,95458.52
2018-12-02T07:56:23.143Z,95463.38
2018-12-02T07:58:53.065Z,95454.11
2018-12-02T08:01:22.913Z,95451.97
2018-12-02T08:03:52.649Z,95443.45
2018-12-02T08:06:22.419Z,95444.45
2018-12-02T08:08:52.269Z,95444.84
2018-12-02T08:11:22.049Z,95443.28
2018-12-02T08:13:51.837Z,95454.70
2018-12-02T08:16:21.649Z,95454.50
2018-12-02T08:18:51.694Z,95458.34
2018-12-02T08:21:21.597Z,95449.86
2018-12-02T08:23:51.457Z,95457.59
2018-12-02T08:26:21.263Z,95471.91
2018-12-02T08:28:51.101Z,95477.15
2018-12-02T08:31:20.865Z,95477.75
2018-12-02T08:33:50.697Z,95481.63
2018-12-02T08:36:20.555Z,95486.48
2018-12-02T08:38:50.341Z,95489.97
2018-12-02T08:41:20.165Z,95488.97
2018-12-02T08:43:49.943Z,95497.09
2018-12-02T08:46:19.743Z,95502.30
2018-12-02T08:48:49.555Z,95502.51
2018-12-02T08:51:19.364Z,95500.98
2018-12-02T08:53:49.211Z,95510.06
2018-12-02T08:56:19.161Z,95519.75
2018-12-02T08:58:48.983Z,95515.30
2018-12-02T09:01:18.788Z,95521.71
2018-12-02T09:03:49.266Z,95530.55
2018-12-02T09:06:18.445Z,95513.16
2018-12-02T09:08:48.335Z,95497.84
2018-12-02T09:11:18.149Z,95501.30
2018-12-02T09:13:47.967Z,95510.56
2018-12-02T09:16:17.806Z,95503.02
2018-12-02T09:18:47.600Z,95490.27
2018-12-02T09:21:17.478Z,95474.63
2018-12-02T09:23:47.572Z,95480.42
2018-12-02T09:26:17.127Z,95523.56
2018-12-02T09:28:46.951Z,95583.88
2018-12-02T09:31:16.937Z,95599.59
2018-12-02T09:33:46.734Z,95594.41
2018-12-02T09:36:16.564Z,95582.39
2018-12-02T09:38:46.345Z,95578.33
2018-12-02T09:41:16.188Z,95582.38
2018-12-02T09:43:46.064Z,95581.35
2018-12-02T09:46:16.203Z,95559.30
2018-12-02T09:48:46.008Z,95517.83
2018-12-02T09:52:10.760Z,95524.02
2018-12-02T09:54:40.566Z,95501.58
2018-12-02T09:57:10.322Z,95488.27
2018-12-02T09:59:40.178Z,95475.48
2018-12-02T10:02:09.970Z,95450.34
2018-12-02T10:11:51.106Z,95428.80
2018-12-02T10:14:20.934Z,95447.42
2018-12-02T10:16:50.724Z,95463.31
2018-12-02T10:19:20.524Z,95475.70
2018-12-02T10:21:50.331Z,95500.69
2018-12-02T10:24:20.153Z,95495.05
2018-12-02T10:26:50.112Z,95477.27
2018-12-02T10:29:19.892Z,95474.59
2018-12-02T10:31:49.761Z,95494.70
2018-12-02T10:34:19.575Z,95490.45
2018-12-02T10:36:49.400Z,95497.41
2018-12-02T10:39:19.214Z,95498.19
2018-12-02T10:41:49.029Z,95497.02
2018-12-02T10:44:18.830Z,95509.77
2018-12-02T10:46:48.696Z,95508.23
2018-12-02T10:49:18.552Z,95496.83
2018-12-02T10:51:48.329Z,95501.70
2018-12-02T10:54:18.158Z,95505.53
2018-12-02T10:56:48.030Z,95501.70
2018-12-02T10:59:17.813Z,95496.86
2018-12-02T11:01:47.683Z,95497.64
2018-12-02T11:04:17.465Z,95502.67
2018-12-02T11:06:47.316Z,95503.63
2018-12-02T11:09:17.165Z,95500.35
2018-12-02T11:11:46.938Z,95502.67
2018-12-02T11:14:16.747Z,95503.45
2018-12-02T11:16:46.512Z,95497.09
2018-12-02T11:19:16.303Z,95493.40
2018-12-02T11:21:46.143Z,95500.38
2018-12-02T11:24:15.927Z,95497.48
2018-12-02T11:26:45.829Z,95491.89
2018-12-02T11:29:15.551Z,95491.91
2018-12-02T11:31:45.310Z,95494.44
2018-12-02T11:34:15.122Z,95485.55
2018-12-02T11:36:44.962Z,95489.83
2018-12-02T11:39:14.759Z,95484.61
2018-12-02T11:41:44.567Z,95485.41
2018-12-02T11:44:14.370Z,95480.56
2018-12-02T11:46:44.211Z,95473.39
2018-12-02T11:49:14.019Z,95475.93
2018-12-02T11:51:43.908Z,95480.77
2018-12-02T11:54:14.110Z,95481.55
2018-12-02T11:56:43.936Z,95472.06
2018-12-02T11:59:13.773Z,95483.11
2018-12-02T12:01:43.653Z,95482.14
2018-12-02T12:04:13.495Z,95469.97
2018-12-02T12:06:43.425Z,95469.39
2018-12-02T12:09:13.223Z,95451.98
2018-12-02T12:11:43.111Z,95459.92
2018-12-02T12:14:12.911Z,95460.70
2018-12-02T12:16:42.811Z,95449.27
2018-12-02T12:19:12.693Z,95443.47
2018-12-02T12:21:42.595Z,95448.89
2018-12-02T12:24:12.419Z,95437.09
2018-12-02T12:26:42.714Z,95438.46
2018-12-02T12:29:12.493Z,95439.02
2018-12-02T12:31:42.404Z,95449.71
2018-12-02T12:34:12.251Z,95459.37
2018-12-02T12:36:42.213Z,95468.91
2018-12-02T12:39:12.049Z,95450.08
2018-12-02T12:41:42.208Z,95445.84
2018-12-02T12:44:12.400Z,95437.31
2018-12-02T12:46:42.224Z,95445.05
2018-12-02T12:49:12.087Z,95436.33
2018-12-02T12:51:42.703Z,95445.24
2018-12-02T12:54:12.515Z,95435.16
2018-12-02T12:56:42.295Z,95431.50
2018-12-02T12:59:12.117Z,95442.55
2018-12-02T13:01:42.057Z,95457.45
2018-12-02T13:04:12.042Z,95445.27
2018-12-02T13:06:41.873Z,95446.81
2018-12-02T13:09:11.679Z,95441.39
2018-12-02T13:11:41.544Z,95443.92
2018-12-02T13:14:11.413Z,95462.51
2018-12-02T13:16:41.269Z,95465.20
2018-12-02T13:19:11.073Z,95463.84
2018-12-02T13:21:40.929Z,95454.92
2018-12-02T13:24:10.847Z,95452.59
2018-12-02T13:26:40.648Z,95450.69
2018-12-02T13:29:10.495Z,95448.56
2018-12-02T13:31:40.285Z,95445.44
2018-12-02T13:34:10.134Z,95452.05
2018-12-02T13:36:39.917Z,95450.30
2018-12-02T13:39:11.601Z,95455.14
2018-12-02T13:41:41.454Z,95445.07
2018-12-02T13:44:11.265Z,95461.33
2018-12-02T13:46:41.066Z,95464.44
2018-12-02T13:49:12.688Z,95470.82
2018-12-02T13:51:42.531Z,95465.63
2018-12-02T13:54:17.375Z,95470.65
2018-12-02T13:56:47.172Z,95472.78
2018-12-02T13:59:16.994Z,95475.31
2018-12-02T14:01:46.877Z,95467.97
2018-12-02T14:04:16.951Z,95466.80
2018-12-02T14:06:46.560Z,95476.10
2018-12-02T14:09:16.362Z,95487.55
2018-12-02T14:11:46.191Z,95478.83
2018-12-02T14:14:16.004Z,95480.19
2018-12-02T14:16:55.347Z,95482.69
2018-12-02T14:19:25.125Z,95476.69
2018-12-02T14:21:54.952Z,95475.91
2018-12-02T14:24:24.738Z,95484.62
2018-12-02T14:26:54.678Z,95480.38
2018-12-02T14:29:30.920Z,95474.55
2018-12-02T14:32:03.503Z,95475.32
2018-12-02T14:34:33.454Z,95469.14
2018-12-02T14:37:03.402Z,95475.73
2018-12-02T14:39:33.310Z,95474.36
2018-12-02T14:42:03.585Z,95471.25
2018-12-02T14:44:33.425Z,95477.28
2018-12-02T14:47:03.298Z,95472.81
2018-12-02T14:49:34.153Z,95479.03
2018-12-02T14:52:03.044Z,95478.42
2018-12-02T14:54:32.893Z,95480.76
2018-12-02T14:57:02.735Z,95487.17
2018-12-02T14:59:32.568Z,95483.66
2018-12-02T15:02:02.416Z,95489.09
2018-12-02T15:04:32.290Z,95492.41
2018-12-02T15:07:02.132Z,95493.95
2018-12-02T15:09:32.005Z,95501.30
2018-12-02T15:12:01.904Z,95498.02
2018-12-02T15:14:31.725Z,95491.23
2018-12-02T15:17:01.569Z,95488.90
2018-12-02T15:19:31.373Z,95491.82
2018-12-02T15:22:01.223Z,95493.36
2018-12-02T15:24:31.034Z,95506.36
2018-12-02T15:27:00.903Z,95504.41
2018-12-02T15:29:30.688Z,95507.73
2018-12-02T15:32:00.418Z,95503.45
2018-12-02T15:34:30.211Z,95516.23
2018-12-02T15:37:00.063Z,95512.36
2018-12-02T15:39:29.865Z,95512.94
2018-12-02T15:41:59.709Z,95512.75
2018-12-02T15:44:29.499Z,95505.96
2018-12-02T15:46:59.328Z,95504.03
2018-12-02T15:49:29.370Z,95497.24
2018-12-02T15:51:59.190Z,95497.64
2018-12-02T15:54:29.014Z,95498.42
2018-12-02T15:56:58.876Z,95495.71
2018-12-02T15:59:28.799Z,95498.41
2018-12-02T16:01:58.789Z,95502.29
2018-12-02T16:04:28.645Z,95508.47
2018-12-02T16:06:58.474Z,95508.28
2018-12-02T16:09:28.293Z,95509.63
2018-12-02T16:11:58.209Z,95501.91
2018-12-02T16:14:28.016Z,95513.52
2018-12-02T16:16:57.933Z,95514.30
2018-12-02T16:19:27.759Z,95516.44
2018-12-02T16:21:57.654Z,95509.44
2018-12-02T16:24:27.441Z,95510.23
2018-12-02T16:26:57.249Z,95495.71
2018-12-02T16:29:27.051Z,95491.64
2018-12-02T16:31:56.831Z,95495.35
2018-12-02T16:34:26.741Z,95503.28
2018-12-02T16:36:56.581Z,95504.84
2018-12-02T16:39:26.430Z,95508.92
2018-12-02T16:41:56.263Z,95512.41
2018-12-02T16:44:26.128Z,95514.34
2018-12-02T16:46:56.062Z,95519.58
2018-12-02T16:49:25.840Z,95518.23
2018-12-02T16:51:55.647Z,95511.45
2018-12-02T16:54:25.467Z,95521.34
2018-12-02T16:56:55.813Z,95507.19
2018-12-02T16:59:31.279Z,95509.32
2018-12-02T17:02:05.260Z,95508.34
2018-12-02T17:04:32.961Z,95516.09
2018-12-02T17:07:02.776Z,95509.51
2018-12-02T17:09:32.552Z,95519.20
2018-12-02T17:12:02.430Z,95513.59
2018-12-02T17:14:32.266Z,95523.28
2018-12-02T17:17:02.012Z,95515.72
2018-12-02T17:19:31.828Z,95518.23
2018-12-02T17:22:01.623Z,95517.09
2018-12-02T17:24:31.429Z,95506.20
2018-12-02T17:27:01.241Z,95507.94
2018-12-02T17:29:31.186Z,95509.88
2018-12-02T17:32:11.369Z,95507.58
2018-12-02T17:34:41.176Z,95504.47
2018-12-02T17:37:10.996Z,95508.91
2018-12-02T17:39:46.101Z,95514.35
2018-12-02T17:42:16.016Z,95514.94
2018-12-02T17:44:45.850Z,95511.62
2018-12-02T17:47:15.650Z,95504.25
2018-12-02T17:49:45.437Z,95501.91
2018-12-02T17:52:15.259Z,95501.91
2018-12-02T17:54:45.213Z,95500.94
2018-12-02T17:57:15.049Z,95491.02
2018-12-02T17:59:44.802Z,95486.36
2018-12-02T18:02:15.525Z,95505.96
2018-12-02T18:04:44.513Z,95510.44
2018-12-02T18:07:14.385Z,95512.76
2018-12-02T18:09:44.183Z,95497.23
2018-12-02T18:12:14.035Z,95497.23
2018-12-02T18:14:43.901Z,95511.20
2018-12-02T18:17:13.728Z,95507.50
2018-12-02T18:19:43.570Z,95490.20
2018-12-02T18:22:13.350Z,95501.08
2018-12-02T18:24:43.248Z,95515.86
2018-12-02T18:27:13.122Z,95515.66
2018-12-02T18:29:42.889Z,95497.23
2018-12-02T18:32:12.716Z,95500.33
2018-12-02T18:37:20.492Z,95500.53
2018-12-02T18:39:50.309Z,95503.63
2018-12-02T18:42:20.296Z,95505.36
2018-12-02T18:44:50.333Z,95496.83
2018-12-02T18:47:20.128Z,95497.98
2018-12-02T18:49:49.955Z,95481.30
2018-12-02T18:52:19.740Z,95485.18
2018-12-02T18:54:49.533Z,95492.38
2018-12-02T18:57:19.391Z,95480.52
2018-12-02T18:59:49.246Z,95476.65
2018-12-02T19:02:19.083Z,95471.59
2018-12-02T19:04:48.902Z,95475.66
2018-12-02T19:07:18.770Z,95457.80
2018-12-02T19:09:48.561Z,95454.30
2018-12-02T19:12:18.426Z,95454.30
2018-12-02T19:14:48.195Z,95461.30
2018-12-02T19:17:18.179Z,95471.59
2018-12-02T19:19:47.957Z,95489.63
2018-12-02T19:22:17.797Z,95486.71
2018-12-02T19:24:47.583Z,95495.06
2018-12-02T19:27:17.416Z,95484.98
2018-12-02T19:29:47.293Z,95487.69
2018-12-02T19:32:17.285Z,95486.91
2018-12-02T19:34:47.074Z,95487.87
2018-12-02T19:37:16.915Z,95479.51
2018-12-02T19:39:46.655Z,95485.52
2018-12-02T19:42:16.475Z,95484.74
2018-12-02T19:44:46.262Z,95483.59
2018-12-02T19:47:16.067Z,95480.48
2018-12-02T19:49:45.843Z,95484.74
2018-12-02T19:52:15.653Z,95488.65
2018-12-02T19:54:45.420Z,95493.30
2018-12-02T19:57:15.262Z,95483.79
2018-12-02T19:59:45.069Z,95482.05
2018-12-02T20:02:14.833Z,95484.19
2018-12-02T20:04:44.650Z,95478.15
2018-12-02T20:07:14.537Z,95490.18
2018-12-02T20:09:44.514Z,95488.44
2018-12-02T20:12:14.337Z,95487.29
2018-12-02T20:14:44.104Z,95496.02
2018-12-02T20:17:13.977Z,95499.52
2018-12-02T20:19:49.084Z,95498.54
2018-12-02T20:22:18.899Z,95508.05
2018-12-02T20:24:48.681Z,95506.31
2018-12-02T20:27:18.535Z,95506.11
2018-12-02T20:29:48.331Z,95509.03
2018-12-02T20:32:18.111Z,95507.47
2018-12-02T20:34:47.904Z,95510.97
2018-12-02T20:37:17.709Z,95509.03
2018-12-02T20:39:47.511Z,95515.66
2018-12-02T20:42:17.399Z,95504.95
2018-12-02T20:44:52.683Z,95500.70
2018-12-02T20:47:17.077Z,95495.65
2018-12-02T20:49:46.839Z,95504.17
2018-12-02T20:52:16.639Z,95501.86
2018-12-02T20:54:47.006Z,95492.34
2018-12-02T20:57:16.855Z,95497.95
2018-12-02T20:59:46.693Z,95497.14
2018-12-02T21:02:16.516Z,95494.25
2018-12-02T21:04:46.301Z,95490.34
2018-12-02T21:07:16.073Z,95489.77
2018-12-02T21:09:45.873Z,95497.92
2018-12-02T21:12:15.663Z,95495.98
2018-12-02T21:14:45.436Z,95505.70
2018-12-02T21:17:15.197Z,95511.92
2018-12-02T21:19:44.947Z,95509.58
2018-12-02T21:22:14.729Z,95510.73
2018-12-02T21:24:44.541Z,95509.00
2018-12-02T21:27:14.299Z,95511.11
2018-12-02T21:29:44.069Z,95520.45
2018-12-02T21:32:13.892Z,95515.39
2018-12-02T21:34:43.718Z,95518.11
2018-12-02T21:37:14.221Z,95521.23
2018-12-02T21:39:44.014Z,95517.16
2018-12-02T21:42:13.807Z,95519.87
2018-12-02T21:44:43.596Z,95508.42
2018-12-02T21:47:13.443Z,95527.83
2018-12-02T21:49:43.337Z,95523.95
2018-12-02T21:52:13.164Z,95521.23
2018-12-02T21:54:42.966Z,95520.08
2018-12-02T21:57:12.805Z,95523.95
2018-12-02T21:59:42.605Z,95521.61
2018-12-02T22:02:12.387Z,95519.09
2018-12-02T22:04:42.702Z,95516.95
2018-12-02T22:07:12.059Z,95513.28
2018-12-02T22:09:41.997Z,95503.97
2018-12-02T22:12:11.766Z,95508.25
2018-12-02T22:14:41.614Z,95503.77
2018-12-02T22:17:11.389Z,95505.33
2018-12-02T22:19:41.301Z,95510.56
2018-12-02T22:22:11.099Z,95504.34
2018-12-02T22:24:40.886Z,95505.30
2018-12-02T22:27:10.726Z,95504.92
2018-12-02T22:29:40.548Z,95499.69
2018-12-02T22:32:10.302Z,95500.06
2018-12-02T22:34:40.101Z,95495.78
2018-12-02T22:37:09.864Z,95493.06
2018-12-02T22:39:39.648Z,95502.00
2018-12-02T22:42:09.562Z,95495.00
2018-12-02T22:44:39.337Z,95500.23
2018-12-02T22:47:09.157Z,95489.36
2018-12-02T22:49:38.994Z,95494.59
2018-12-02T22:52:08.784Z,95483.55
2018-12-02T22:54:38.595Z,95485.48
2018-12-02T22:57:09.070Z,95478.10
2018-12-02T22:59:38.856Z,95482.18
2018-12-02T23:02:16.745Z,95483.14
2018-12-02T23:04:46.910Z,95492.86
2018-12-02T23:07:16.678Z,95494.02
2018-12-02T23:09:46.460Z,95504.48
2018-12-02T23:12:16.289Z,95503.11
2018-12-02T23:14:46.431Z,95511.27
2018-12-02T23:17:24.293Z,95516.67
2018-12-02T23:19:54.515Z,95523.51
2018-12-02T23:22:24.303Z,95516.88
2018-12-02T23:24:54.109Z,95512.23
2018-12-02T23:27:23.937Z,95505.42
2018-12-02T23:33:30.433Z,95494.96
2018-12-02T23:36:00.421Z,95483.70
2018-12-02T23:38:30.263Z,95481.94
2018-12-02T23:41:00.387Z,95482.92
2018-12-02T23:43:30.197Z,95478.44
2018-12-02T23:46:00.091Z,95483.70
2018-12-02T23:48:29.981Z,95490.71
2018-12-02T23:50:59.843Z,95483.14
2018-12-02T23:53:29.767Z,95488.98
2018-12-02T23:55:59.620Z,95488.78
2018-12-02T23:58:29.585Z,95489.16
